createdAt,value
2022-08-11T00:01:59.060Z,98838.03
2022-08-11T00:04:27.731Z,98842.50
2022-08-11T00:06:55.549Z,98839.03
2022-08-11T00:09:31.510Z,98838.13
2022-08-11T00:11:59.229Z,98838.22
2022-08-11T00:14:37.130Z,98833.13
2022-08-11T00:17:13.681Z,98833.31
2022-08-11T00:20:12.208Z,98837.97
2022-08-11T00:22:39.994Z,98838.16
2022-08-11T00:25:19.206Z,98844.31
2022-08-11T00:27:47.071Z,98840.19
2022-08-11T00:30:14.363Z,98843.56
2022-08-11T00:32:52.307Z,98841.88
2022-08-11T00:35:51.814Z,98843.94
2022-08-11T00:38:14.179Z,98839.69
2022-08-11T00:40:59.312Z,98833.00
2022-08-11T00:43:47.927Z,98846.81
2022-08-11T00:46:42.445Z,98838.22
2022-08-11T00:49:17.972Z,98840.47
2022-08-11T00:52:14.022Z,98837.84
2022-08-11T00:55:14.474Z,98840.56
2022-08-11T00:58:21.911Z,98841.41
2022-08-11T01:01:08.055Z,98835.50
2022-08-11T01:03:51.351Z,98834.75
2022-08-11T01:06:59.946Z,98834.66
2022-08-11T01:09:51.145Z,98833.03
2022-08-11T01:12:39.454Z,98836.53
2022-08-11T01:15:55.564Z,98833.50
2022-08-11T01:18:35.926Z,98834.44
2022-08-11T01:21:33.318Z,98844.97
2022-08-11T01:24:40.901Z,98829.22
2022-08-11T01:27:19.008Z,98836.28
2022-08-11T01:30:39.204Z,98839.59
2022-08-11T01:33:43.076Z,98837.97
2022-08-11T01:36:53.597Z,98836.88
2022-08-11T01:39:44.898Z,98834.34
2022-08-11T01:42:51.890Z,98835.47
2022-08-11T01:45:37.719Z,98829.53
2022-08-11T01:48:30.946Z,98819.78
2022-08-11T01:51:06.757Z,98826.66
2022-08-11T01:53:33.743Z,98828.44
2022-08-11T01:56:38.196Z,98822.66
2022-08-11T01:59:19.845Z,98818.91
2022-08-11T02:05:30.566Z,98820.63
2022-08-11T02:08:33.075Z,98822.22
2022-08-11T02:11:31.214Z,98815.97
2022-08-11T02:14:34.310Z,98829.56
2022-08-11T02:17:15.441Z,98825.31
2022-08-11T02:20:09.974Z,98830.03
2022-08-11T02:24:04.422Z,98822.59
2022-08-11T02:26:30.387Z,98814.25
2022-08-11T02:29:18.829Z,98812.00
2022-08-11T02:32:29.910Z,98807.22
2022-08-11T02:35:42.875Z,98810.44
2022-08-11T02:38:17.640Z,98815.50
2022-08-11T02:41:39.886Z,98812.78
2022-08-11T02:44:21.044Z,98813.03
2022-08-11T02:47:06.667Z,98818.84
2022-08-11T02:49:59.944Z,98817.31
2022-08-11T02:53:15.209Z,98811.94
2022-08-11T02:56:23.004Z,98816.22
2022-08-11T02:59:42.593Z,98814.47
2022-08-11T03:02:45.896Z,98819.00
2022-08-11T03:05:59.725Z,98817.41
2022-08-11T03:09:33.410Z,98815.88
2022-08-11T03:12:28.660Z,98820.44
2022-08-11T03:15:59.309Z,98825.69
2022-08-11T03:19:34.370Z,98825.31
2022-08-11T03:25:31.630Z,98824.91
2022-08-11T03:28:04.741Z,98827.88
2022-08-11T03:44:36.885Z,98831.34
2022-08-11T03:47:54.924Z,98823.13
2022-08-11T03:51:03.980Z,98827.69
2022-08-11T03:53:44.022Z,98819.94
2022-08-11T03:57:07.976Z,98820.94
2022-08-11T03:59:53.659Z,98822.97
2022-08-11T04:02:59.890Z,98815.38
2022-08-11T04:05:46.556Z,98822.66
2022-08-11T04:08:34.820Z,98824.34
2022-08-11T04:11:30.594Z,98824.50
2022-08-11T04:14:37.001Z,98823.91
2022-08-11T04:17:09.269Z,98825.75
2022-08-11T04:20:09.882Z,98833.53
2022-08-11T04:24:33.031Z,98834.50
2022-08-11T04:26:38.974Z,98831.78
2022-08-11T04:29:14.779Z,98831.50
2022-08-11T04:32:16.579Z,98826.00
2022-08-11T04:35:14.022Z,98828.81
2022-08-11T04:38:27.906Z,98831.34
2022-08-11T04:41:18.877Z,98832.94
2022-08-11T04:44:26.463Z,98829.00
2022-08-11T04:48:01.816Z,98831.50
2022-08-11T04:51:17.458Z,98833.47
2022-08-11T04:54:19.458Z,98836.03
2022-08-11T04:57:07.295Z,98840.28
2022-08-11T05:00:10.782Z,98847.22
2022-08-11T05:03:07.726Z,98849.03
2022-08-11T05:06:01.560Z,98842.69
2022-08-11T05:09:07.261Z,98850.44
2022-08-11T05:12:01.940Z,98865.91
2022-08-11T05:15:10.101Z,98868.72
2022-08-11T05:18:03.982Z,98859.41
2022-08-11T05:20:49.517Z,98867.03
2022-08-11T05:23:37.383Z,98859.91
2022-08-11T05:26:46.150Z,98866.75
2022-08-11T05:30:00.005Z,98858.94
2022-08-11T05:33:00.931Z,98862.09
2022-08-11T05:36:00.573Z,98869.78
2022-08-11T05:38:45.174Z,98868.00
2022-08-11T05:41:31.821Z,98872.59
2022-08-11T05:44:22.647Z,98874.66
2022-08-11T05:47:09.628Z,98875.56
2022-08-11T05:49:55.484Z,98877.16
2022-08-11T05:52:47.085Z,98880.47
2022-08-11T05:55:35.390Z,98879.97
2022-08-11T05:58:18.626Z,98889.28
2022-08-11T06:00:47.080Z,98880.09
2022-08-11T06:03:30.042Z,98884.25
2022-08-11T06:05:58.531Z,98887.31
2022-08-11T06:08:32.833Z,98879.03
2022-08-11T06:11:05.474Z,98885.66
2022-08-11T06:13:33.807Z,98876.06
2022-08-11T06:16:06.273Z,98882.69
2022-08-11T06:18:34.156Z,98880.53
2022-08-11T06:21:01.077Z,98879.31
2022-08-11T06:23:33.361Z,98872.13
2022-08-11T06:26:09.094Z,98870.84
2022-08-11T06:28:41.473Z,98873.88
2022-08-11T06:31:18.417Z,98874.47
2022-08-11T06:33:48.062Z,98869.69
2022-08-11T06:36:34.507Z,98876.44
2022-08-11T06:39:20.313Z,98874.88
2022-08-11T06:41:57.640Z,98878.66
2022-08-11T06:44:43.314Z,98870.81
2022-08-11T06:47:13.152Z,98874.16
2022-08-11T06:50:06.600Z,98878.22
2022-08-11T06:52:37.843Z,98875.13
2022-08-11T06:55:55.804Z,98874.69
2022-08-11T06:58:18.062Z,98871.81
2022-08-11T07:00:48.833Z,98879.22
2022-08-11T07:03:20.447Z,98873.97
2022-08-11T07:06:03.000Z,98873.25
2022-08-11T07:08:57.532Z,98876.97
2022-08-11T07:11:53.454Z,98879.88
2022-08-11T07:14:48.642Z,98873.78
2022-08-11T07:17:19.789Z,98873.75
2022-08-11T07:20:12.155Z,98873.34
2022-08-11T07:22:58.033Z,98877.22
2022-08-11T07:25:44.549Z,98893.97
2022-08-11T07:28:32.971Z,98872.31
2022-08-11T07:31:14.135Z,98874.53
2022-08-11T07:34:07.221Z,98870.44
2022-08-11T07:36:40.013Z,98863.47
2022-08-11T07:39:15.281Z,98866.25
2022-08-11T07:41:43.096Z,98872.28
2022-08-11T07:44:11.523Z,98860.41
2022-08-11T07:47:15.896Z,98872.31
2022-08-11T07:50:04.393Z,98869.00
2022-08-11T07:52:34.681Z,98871.31
2022-08-11T07:55:04.996Z,98851.91
2022-08-11T07:58:14.304Z,98866.16
2022-08-11T08:01:01.731Z,98862.25
2022-08-11T08:03:54.570Z,98858.16
2022-08-11T08:06:41.322Z,98854.44
2022-08-11T08:09:27.547Z,98843.81
2022-08-11T08:12:14.021Z,98849.34
2022-08-11T08:14:58.857Z,98854.81
2022-08-11T08:17:46.613Z,98850.81
2022-08-11T08:20:37.378Z,98853.66
2022-08-11T08:23:05.621Z,98844.53
2022-08-11T08:25:36.219Z,98850.78
2022-08-11T08:28:10.063Z,98859.13
2022-08-11T08:30:52.568Z,98858.78
2022-08-11T08:33:18.899Z,98855.78
2022-08-11T08:35:54.386Z,98847.47
2022-08-11T08:38:23.260Z,98848.03
2022-08-11T08:40:56.025Z,98863.94
2022-08-11T08:43:24.423Z,98842.13
2022-08-11T08:45:55.727Z,98846.81
2022-08-11T08:48:25.826Z,98840.78
2022-08-11T08:51:21.784Z,98838.84
2022-08-11T08:53:53.400Z,98848.41
2022-08-11T08:56:30.397Z,98846.06
2022-08-11T08:58:59.512Z,98845.44
2022-08-11T09:01:32.289Z,98840.28
2022-08-11T09:04:04.957Z,98846.47
2022-08-11T09:06:40.302Z,98841.25
2022-08-11T09:09:12.120Z,98831.94
2022-08-11T09:11:55.282Z,98838.09
2022-08-11T09:14:55.753Z,98844.41
2022-08-11T09:17:23.763Z,98836.28
2022-08-11T09:20:00.329Z,98833.44
2022-08-11T09:26:17.095Z,98829.16
2022-08-11T09:28:44.706Z,98830.69
2022-08-11T09:31:13.472Z,98828.28
2022-08-11T09:33:42.888Z,98826.00
2022-08-11T09:36:47.717Z,98827.06
2022-08-11T09:39:33.365Z,98830.78
2022-08-11T09:42:04.138Z,98821.53
2022-08-11T09:44:52.985Z,98828.13
2022-08-11T09:47:22.444Z,98811.81
2022-08-11T09:49:51.742Z,98815.50
2022-08-11T09:52:18.772Z,98803.75
2022-08-11T09:54:49.471Z,98797.84
2022-08-11T09:57:39.134Z,98803.13
2022-08-11T10:00:12.281Z,98801.66
2022-08-11T10:02:43.901Z,98809.47
2022-08-11T10:05:30.607Z,98792.69
2022-08-11T10:07:57.108Z,98795.91
2022-08-11T10:10:24.696Z,98785.53
2022-08-11T10:12:53.714Z,98780.97
2022-08-11T10:15:39.863Z,98800.09
2022-08-11T10:18:42.856Z,98782.06
2022-08-11T10:21:25.066Z,98779.69
2022-08-11T10:24:11.662Z,98774.59
2022-08-11T10:26:57.618Z,98776.88
2022-08-11T10:29:52.045Z,98773.47
2022-08-11T10:32:57.570Z,98774.06
2022-08-11T10:35:30.406Z,98766.47
2022-08-11T10:38:07.858Z,98770.34
2022-08-11T10:40:40.701Z,98766.88
2022-08-11T10:43:14.014Z,98764.59
2022-08-11T10:46:04.208Z,98759.06
2022-08-11T10:48:36.364Z,98748.00
2022-08-11T10:51:13.342Z,98742.13
2022-08-11T10:54:02.477Z,98745.88
2022-08-11T10:56:51.039Z,98747.69
2022-08-11T10:59:17.834Z,98741.16
2022-08-11T11:01:45.739Z,98743.75
2022-08-11T11:04:17.927Z,98743.44
2022-08-11T11:07:06.332Z,98745.03
2022-08-11T11:10:01.658Z,98748.06
2022-08-11T11:12:54.088Z,98732.75
2022-08-11T11:15:41.957Z,98741.78
2022-08-11T11:18:20.366Z,98738.97
2022-08-11T11:21:08.249Z,98728.09
2022-08-11T11:23:48.536Z,98729.72
2022-08-11T11:26:56.197Z,98724.94
2022-08-11T11:29:41.444Z,98722.06
2022-08-11T11:32:08.996Z,98719.16
2022-08-11T11:34:58.244Z,98713.03
2022-08-11T11:37:25.550Z,98707.72
2022-08-11T11:39:54.584Z,98713.72
2022-08-11T11:42:22.113Z,98694.19
2022-08-11T11:44:49.416Z,98697.84
2022-08-11T11:47:21.824Z,98695.47
2022-08-11T11:49:50.143Z,98691.38
2022-08-11T11:52:19.681Z,98694.44
2022-08-11T11:54:51.440Z,98693.31
2022-08-11T11:57:38.661Z,98697.06
2022-08-11T12:00:33.119Z,98695.03
2022-08-11T12:03:03.174Z,98687.50
2022-08-11T12:05:33.572Z,98691.78
2022-08-11T12:08:17.470Z,98685.16
2022-08-11T12:11:13.204Z,98679.63
2022-08-11T12:13:41.733Z,98685.34
2022-08-11T12:16:33.912Z,98671.72
2022-08-11T12:19:12.939Z,98677.69
2022-08-11T12:22:04.041Z,98666.72
2022-08-11T12:24:53.474Z,98672.31
2022-08-11T12:27:20.707Z,98669.72
2022-08-11T12:29:58.108Z,98663.94
2022-08-11T12:32:28.862Z,98661.75
2022-08-11T12:34:57.204Z,98664.72
2022-08-11T12:37:30.160Z,98658.59
2022-08-11T12:40:49.418Z,98661.66
2022-08-11T12:43:39.482Z,98646.69
2022-08-11T12:46:19.964Z,98652.19
2022-08-11T12:49:07.222Z,98648.25
2022-08-11T12:52:12.172Z,98644.91
2022-08-11T12:54:57.744Z,98639.84
2022-08-11T12:58:03.665Z,98636.13
2022-08-11T13:00:49.599Z,98636.91
2022-08-11T13:03:41.456Z,98627.53
2022-08-11T13:06:08.920Z,98619.63
2022-08-11T13:08:39.175Z,98629.41
2022-08-11T13:11:25.693Z,98624.97
2022-08-11T13:14:15.310Z,98612.97
2022-08-11T13:17:02.239Z,98622.63
2022-08-11T13:19:29.490Z,98622.53
2022-08-11T13:21:57.582Z,98617.34
2022-08-11T13:24:24.528Z,98614.19
2022-08-11T13:26:51.499Z,98603.72
2022-08-11T13:29:25.567Z,98610.06
2022-08-11T13:31:54.852Z,98599.94
2022-08-11T13:34:24.021Z,98595.44
2022-08-11T13:36:53.397Z,98605.31
2022-08-11T13:39:24.014Z,98605.00
2022-08-11T13:41:55.112Z,98590.97
2022-08-11T13:44:25.837Z,98586.75
2022-08-11T13:46:56.370Z,98591.19
2022-08-11T13:49:23.768Z,98591.19
2022-08-11T13:51:52.339Z,98582.03
2022-08-11T13:54:22.888Z,98588.66
2022-08-11T13:56:54.186Z,98595.66
2022-08-11T13:59:22.999Z,98581.00
2022-08-11T14:02:20.287Z,98579.34
2022-08-11T14:05:01.540Z,98576.88
2022-08-11T14:07:35.540Z,98564.38
2022-08-11T14:10:04.943Z,98566.16
2022-08-11T14:12:52.259Z,98569.53
2022-08-11T14:15:26.577Z,98559.91
2022-08-11T14:18:04.943Z,98560.25
2022-08-11T14:20:54.361Z,98550.63
2022-08-11T14:23:30.917Z,98542.88
2022-08-11T14:26:16.047Z,98558.75
2022-08-11T14:28:45.104Z,98552.84
2022-08-11T14:31:14.432Z,98542.06
2022-08-11T14:34:00.513Z,98542.56
2022-08-11T14:36:40.601Z,98540.16
2022-08-11T14:39:13.150Z,98536.63
2022-08-11T14:42:11.030Z,98537.66
2022-08-11T14:44:59.130Z,98533.66
2022-08-11T14:47:27.021Z,98534.25
2022-08-11T14:50:02.547Z,98529.78
2022-08-11T14:52:39.088Z,98534.16
2022-08-11T14:55:26.544Z,98532.03
2022-08-11T14:57:56.246Z,98527.75
2022-08-11T15:00:23.854Z,98529.00
2022-08-11T15:03:13.712Z,98527.47
2022-08-11T15:05:56.195Z,98527.28
2022-08-11T15:08:45.617Z,98516.34
2022-08-11T15:11:32.470Z,98530.13
2022-08-11T15:14:04.722Z,98518.44
2022-08-11T15:16:50.226Z,98521.56
2022-08-11T15:19:21.490Z,98519.53
2022-08-11T15:22:09.681Z,98517.16
2022-08-11T15:24:37.297Z,98506.88
2022-08-11T15:27:32.954Z,98502.44
2022-08-11T15:30:33.858Z,98528.53
2022-08-11T15:33:30.582Z,98507.41
2022-08-11T15:36:16.505Z,98500.34
2022-08-11T15:38:49.050Z,98498.69
2022-08-11T15:41:46.576Z,98498.75
2022-08-11T15:45:02.016Z,98499.53
2022-08-11T15:47:36.216Z,98498.81
2022-08-11T15:50:09.706Z,98489.16
2022-08-11T15:52:49.779Z,98501.88
2022-08-11T15:55:16.878Z,98497.44
2022-08-11T15:58:06.127Z,98495.63
2022-08-11T16:00:59.135Z,98484.91
2022-08-11T16:04:09.027Z,98503.19
2022-08-11T16:06:42.824Z,98484.91
2022-08-11T16:09:18.390Z,98478.97
2022-08-11T16:11:47.426Z,98480.63
2022-08-11T16:14:34.361Z,98479.25
2022-08-11T16:17:02.873Z,98474.09
2022-08-11T16:19:36.319Z,98475.94
2022-08-11T16:22:07.266Z,98471.06
2022-08-11T16:27:02.679Z,98469.59
2022-08-11T16:27:27.836Z,98477.25
2022-08-11T16:29:56.470Z,98463.81
2022-08-11T16:32:25.733Z,98460.78
2022-08-11T16:35:17.571Z,98456.72
2022-08-11T16:38:04.381Z,98459.53
2022-08-11T16:40:33.575Z,98460.22
2022-08-11T16:43:22.301Z,98457.41
2022-08-11T16:46:08.186Z,98451.50
2022-08-11T16:48:38.495Z,98452.63
2022-08-11T16:51:07.048Z,98455.97
2022-08-11T16:53:59.896Z,98452.63
2022-08-11T16:56:32.033Z,98460.47
2022-08-11T16:59:14.805Z,98454.38
2022-08-11T17:01:52.970Z,98461.66
2022-08-11T17:04:46.477Z,98460.31
2022-08-11T17:07:41.872Z,98460.06
2022-08-11T17:10:50.392Z,98461.19
2022-08-11T17:13:23.890Z,98459.31
2022-08-11T17:16:08.810Z,98453.47
2022-08-11T17:18:45.675Z,98456.41
2022-08-11T17:21:17.406Z,98466.41
2022-08-11T17:23:51.737Z,98456.25
2022-08-11T17:26:58.547Z,98460.34
2022-08-11T17:29:53.906Z,98459.28
2022-08-11T17:33:00.546Z,98461.84
2022-08-11T17:35:38.522Z,98457.97
2022-08-11T17:38:08.393Z,98463.03
2022-08-11T17:41:00.415Z,98456.69
2022-08-11T17:43:47.063Z,98459.19
2022-08-11T17:46:33.872Z,98458.91
2022-08-11T17:49:00.637Z,98465.47
2022-08-11T17:51:47.799Z,98454.50
2022-08-11T17:54:34.361Z,98459.53
2022-08-11T17:57:21.560Z,98449.13
2022-08-11T17:59:52.740Z,98447.81
2022-08-11T18:02:45.705Z,98452.28
2022-08-11T18:05:13.856Z,98454.38
2022-08-11T18:08:03.721Z,98458.72
2022-08-11T18:10:51.015Z,98455.69
2022-08-11T18:13:39.461Z,98457.34
2022-08-11T18:16:25.887Z,98455.16
2022-08-11T18:19:11.315Z,98456.97
2022-08-11T18:22:02.307Z,98451.28
2022-08-11T18:25:06.125Z,98456.03
2022-08-11T18:27:53.536Z,98464.38
2022-08-11T18:30:38.898Z,98469.63
2022-08-11T18:36:40.016Z,98478.91
2022-08-11T18:39:29.411Z,98479.84
2022-08-11T18:42:19.520Z,98478.38
2022-08-11T18:45:18.648Z,98482.44
2022-08-11T18:48:08.048Z,98481.53
2022-08-11T18:50:59.309Z,98489.38
2022-08-11T18:54:04.787Z,98484.75
2022-08-11T18:56:50.588Z,98489.94
2022-08-11T18:59:41.052Z,98492.38
2022-08-11T19:02:27.376Z,98492.88
2022-08-11T19:05:14.674Z,98492.22
2022-08-11T19:08:02.607Z,98493.81
2022-08-11T19:10:48.207Z,98497.34
2022-08-11T19:13:33.641Z,98499.50
2022-08-11T19:16:21.057Z,98502.66
2022-08-11T19:19:08.452Z,98501.94
2022-08-11T19:21:55.378Z,98506.16
2022-08-11T19:24:42.293Z,98508.94
2022-08-11T19:27:29.620Z,98508.09
2022-08-11T19:30:16.513Z,98507.16
2022-08-11T19:33:02.364Z,98506.34
2022-08-11T19:35:48.894Z,98514.34
2022-08-11T19:38:35.627Z,98508.81
2022-08-11T19:41:56.406Z,98511.78
2022-08-11T19:44:26.963Z,98517.28
2022-08-11T19:47:14.134Z,98520.59
2022-08-11T19:50:02.478Z,98532.16
2022-08-11T19:52:48.677Z,98531.34
2022-08-11T19:55:36.543Z,98540.66
2022-08-11T19:58:22.405Z,98547.22
2022-08-11T20:01:07.889Z,98547.47
2022-08-11T20:03:52.906Z,98546.41
2022-08-11T20:06:39.998Z,98550.91
2022-08-11T20:09:26.760Z,98549.41
2022-08-11T20:12:31.941Z,98556.56
2022-08-11T20:15:18.772Z,98556.56
2022-08-11T20:18:04.220Z,98555.75
2022-08-11T20:20:50.289Z,98557.28
2022-08-11T20:23:36.673Z,98563.50
2022-08-11T20:26:31.774Z,98559.19
2022-08-11T20:29:19.023Z,98566.38
2022-08-11T20:32:08.477Z,98562.75
2022-08-11T20:34:56.668Z,98564.28
2022-08-11T20:37:48.828Z,98575.53
2022-08-11T20:40:38.848Z,98572.41
2022-08-11T20:44:05.852Z,98577.78
2022-08-11T20:46:33.186Z,98581.09
2022-08-11T20:49:21.011Z,98579.53
2022-08-11T20:52:07.109Z,98579.53
2022-08-11T20:54:53.181Z,98585.59
2022-08-11T20:57:59.935Z,98584.13
2022-08-11T21:00:47.299Z,98586.75
2022-08-11T21:03:36.105Z,98586.00
2022-08-11T21:06:33.216Z,98591.19
2022-08-11T21:10:01.213Z,98588.84
2022-08-11T21:12:40.390Z,98591.19
2022-08-11T21:16:06.794Z,98600.66
2022-08-11T21:18:53.375Z,98597.28
2022-08-11T21:21:45.892Z,98600.13
2022-08-11T21:25:00.137Z,98600.34
2022-08-11T21:27:49.441Z,98599.13
2022-08-11T21:34:26.946Z,98597.66
2022-08-11T21:37:12.566Z,98607.22
2022-08-11T21:40:00.074Z,98606.19
2022-08-11T21:42:51.045Z,98602.97
2022-08-11T21:45:37.310Z,98600.66
2022-08-11T21:48:27.609Z,98604.97
2022-08-11T21:51:19.526Z,98607.81
2022-08-11T21:54:08.503Z,98610.00
2022-08-11T21:56:57.921Z,98609.41
2022-08-11T21:59:56.682Z,98605.09
2022-08-11T22:02:44.791Z,98603.84
2022-08-11T22:05:38.986Z,98605.31
2022-08-11T22:08:24.961Z,98611.06
2022-08-11T22:11:10.306Z,98608.66
2022-08-11T22:14:02.942Z,98609.59
2022-08-11T22:16:53.079Z,98617.78
2022-08-11T22:19:40.475Z,98614.34
2022-08-11T22:22:26.919Z,98612.38
2022-08-11T22:25:16.616Z,98608.38
2022-08-11T22:28:04.223Z,98607.00
2022-08-11T22:30:49.385Z,98605.22
2022-08-11T22:33:42.054Z,98611.81
2022-08-11T22:36:41.862Z,98612.88
2022-08-11T22:39:27.773Z,98608.69
2022-08-11T22:42:12.973Z,98607.81
2022-08-11T22:44:57.969Z,98607.63
2022-08-11T22:47:44.939Z,98610.84
2022-08-11T22:50:32.477Z,98618.84
2022-08-11T22:53:28.439Z,98604.34
2022-08-11T22:56:40.771Z,98605.59
2022-08-11T22:59:26.152Z,98609.78
2022-08-11T23:02:12.166Z,98609.63
2022-08-11T23:05:03.488Z,98604.69
2022-08-11T23:07:52.187Z,98601.31
2022-08-11T23:10:39.408Z,98604.56
2022-08-11T23:13:33.961Z,98608.59
2022-08-11T23:16:19.632Z,98601.72
2022-08-11T23:19:05.944Z,98605.97
2022-08-11T23:21:54.104Z,98606.56
2022-08-11T23:24:41.230Z,98606.19
2022-08-11T23:27:27.453Z,98606.78
2022-08-11T23:30:15.649Z,98606.97
2022-08-11T23:33:04.955Z,98606.34
2022-08-11T23:35:56.484Z,98595.59
2022-08-11T23:38:44.989Z,98604.38
2022-08-11T23:41:35.542Z,98608.47
2022-08-11T23:44:21.620Z,98597.81
2022-08-11T23:47:09.287Z,98599.19
2022-08-11T23:49:56.469Z,98604.06
2022-08-11T23:52:45.121Z,98596.28
2022-08-11T23:55:30.448Z,98599.16
2022-08-11T23:58:16.804Z,98597.69
